sensor_id;sensor_type;location;lat;lon;timestamp;P1;durP1;ratioP1;P2;durP2;ratioP2
54923;SDS011;40825;52.270;20.984;2024-03-07T00:00:20;22.90;;;10.50;;
54923;SDS011;40825;52.270;20.984;2024-03-07T00:07:16;24.40;;;10.20;;
54923;SDS011;40825;52.270;20.984;2024-03-07T00:10:44;22.10;;;10.60;;
54923;SDS011;40825;52.270;20.984;2024-03-07T00:13:12;20.10;;;9.30;;
54923;SDS011;40825;52.270;20.984;2024-03-07T00:19:30;22.80;;;9.40;;
54923;SDS011;40825;52.270;20.984;2024-03-07T00:22:22;24.10;;;10.00;;
54923;SDS011;40825;52.270;20.984;2024-03-07T00:24:56;22.10;;;9.00;;
54923;SDS011;40825;52.270;20.984;2024-03-07T00:27:22;20.40;;;10.10;;
54923;SDS011;40825;52.270;20.984;2024-03-07T00:29:48;20.90;;;10.00;;
54923;SDS011;40825;52.270;20.984;2024-03-07T00:32:24;21.00;;;9.70;;
54923;SDS011;40825;52.270;20.984;2024-03-07T00:35:50;19.10;;;9.40;;
54923;SDS011;40825;52.270;20.984;2024-03-07T00:38:16;19.40;;;9.90;;
54923;SDS011;40825;52.270;20.984;2024-03-07T00:43:30;21.30;;;10.10;;
54923;SDS011;40825;52.270;20.984;2024-03-07T00:49:02;19.80;;;9.30;;
54923;SDS011;40825;52.270;20.984;2024-03-07T00:51:29;22.90;;;10.80;;
54923;SDS011;40825;52.270;20.984;2024-03-07T00:53:57;21.70;;;10.40;;
54923;SDS011;40825;52.270;20.984;2024-03-07T00:56:23;18.40;;;9.20;;
54923;SDS011;40825;52.270;20.984;2024-03-07T00:58:49;20.10;;;9.80;;
54923;SDS011;40825;52.270;20.984;2024-03-07T01:01:37;21.70;;;10.50;;
54923;SDS011;40825;52.270;20.984;2024-03-07T01:04:10;23.40;;;10.20;;
54923;SDS011;40825;52.270;20.984;2024-03-07T01:10:14;22.50;;;9.70;;
54923;SDS011;40825;52.270;20.984;2024-03-07T01:12:49;20.90;;;10.10;;
54923;SDS011;40825;52.270;20.984;2024-03-07T01:15:54;20.40;;;11.20;;
54923;SDS011;40825;52.270;20.984;2024-03-07T01:22:42;21.90;;;9.10;;
54923;SDS011;40825;52.270;20.984;2024-03-07T01:25:58;19.10;;;8.40;;
54923;SDS011;40825;52.270;20.984;2024-03-07T01:28:53;26.00;;;11.00;;
54923;SDS011;40825;52.270;20.984;2024-03-07T01:34:58;23.80;;;10.20;;
54923;SDS011;40825;52.270;20.984;2024-03-07T01:37:43;21.60;;;9.70;;
54923;SDS011;40825;52.270;20.984;2024-03-07T01:40:36;22.80;;;11.00;;
54923;SDS011;40825;52.270;20.984;2024-03-07T01:43:18;23.10;;;10.40;;
54923;SDS011;40825;52.270;20.984;2024-03-07T01:46:44;19.40;;;7.90;;
54923;SDS011;40825;52.270;20.984;2024-03-07T01:49:39;24.10;;;11.00;;
54923;SDS011;40825;52.270;20.984;2024-03-07T01:52:46;22.30;;;10.40;;
54923;SDS011;40825;52.270;20.984;2024-03-07T01:55:41;21.40;;;10.10;;
54923;SDS011;40825;52.270;20.984;2024-03-07T02:05:39;24.00;;;10.20;;
54923;SDS011;40825;52.270;20.984;2024-03-07T02:08:28;21.40;;;10.10;;
54923;SDS011;40825;52.270;20.984;2024-03-07T02:11:29;20.00;;;9.40;;
54923;SDS011;40825;52.270;20.984;2024-03-07T02:27:56;23.70;;;10.60;;
54923;SDS011;40825;52.270;20.984;2024-03-07T02:30:22;21.30;;;10.10;;
54923;SDS011;40825;52.270;20.984;2024-03-07T02:36:46;26.30;;;11.80;;
54923;SDS011;40825;52.270;20.984;2024-03-07T02:43:17;25.20;;;10.30;;
54923;SDS011;40825;52.270;20.984;2024-03-07T02:46:44;20.70;;;9.70;;
54923;SDS011;40825;52.270;20.984;2024-03-07T02:49:36;20.20;;;9.40;;
54923;SDS011;40825;52.270;20.984;2024-03-07T02:52:28;23.20;;;10.40;;
54923;SDS011;40825;52.270;20.984;2024-03-07T02:55:54;23.50;;;9.90;;
54923;SDS011;40825;52.270;20.984;2024-03-07T03:02:57;25.80;;;9.60;;
54923;SDS011;40825;52.270;20.984;2024-03-07T03:13:17;23.20;;;10.50;;
54923;SDS011;40825;52.270;20.984;2024-03-07T03:15:56;24.50;;;9.70;;
54923;SDS011;40825;52.270;20.984;2024-03-07T03:19:02;24.10;;;11.70;;
54923;SDS011;40825;52.270;20.984;2024-03-07T03:21:48;21.90;;;8.90;;
54923;SDS011;40825;52.270;20.984;2024-03-07T03:38:01;23.30;;;10.20;;
54923;SDS011;40825;52.270;20.984;2024-03-07T03:44:48;25.40;;;10.10;;
54923;SDS011;40825;52.270;20.984;2024-03-07T03:51:36;24.00;;;10.00;;
54923;SDS011;40825;52.270;20.984;2024-03-07T03:54:19;28.40;;;10.80;;
54923;SDS011;40825;52.270;20.984;2024-03-07T03:57:13;26.20;;;11.70;;
54923;SDS011;40825;52.270;20.984;2024-03-07T04:03:40;28.10;;;11.50;;
54923;SDS011;40825;52.270;20.984;2024-03-07T04:07:03;26.00;;;11.40;;
54923;SDS011;40825;52.270;20.984;2024-03-07T04:09:38;29.50;;;10.90;;
54923;SDS011;40825;52.270;20.984;2024-03-07T04:26:53;24.20;;;10.30;;
54923;SDS011;40825;52.270;20.984;2024-03-07T04:32:54;22.00;;;10.50;;
54923;SDS011;40825;52.270;20.984;2024-03-07T04:35:28;26.00;;;10.60;;
54923;SDS011;40825;52.270;20.984;2024-03-07T04:39:02;27.00;;;10.20;;
54923;SDS011;40825;52.270;20.984;2024-03-07T04:52:50;23.20;;;10.20;;
54923;SDS011;40825;52.270;20.984;2024-03-07T04:55:25;28.70;;;11.50;;
54923;SDS011;40825;52.270;20.984;2024-03-07T04:57:53;19.70;;;8.40;;
54923;SDS011;40825;52.270;20.984;2024-03-07T05:00:22;24.00;;;10.00;;
54923;SDS011;40825;52.270;20.984;2024-03-07T05:06:53;21.80;;;11.50;;
54923;SDS011;40825;52.270;20.984;2024-03-07T05:09:39;21.20;;;9.40;;
54923;SDS011;40825;52.270;20.984;2024-03-07T05:20:14;27.00;;;10.20;;
54923;SDS011;40825;52.270;20.984;2024-03-07T05:25:48;22.40;;;9.60;;
54923;SDS011;40825;52.270;20.984;2024-03-07T05:28:27;22.20;;;10.50;;
54923;SDS011;40825;52.270;20.984;2024-03-07T05:40:43;24.80;;;10.60;;
54923;SDS011;40825;52.270;20.984;2024-03-07T05:43:09;23.00;;;11.10;;
54923;SDS011;40825;52.270;20.984;2024-03-07T05:48:55;26.60;;;10.50;;
54923;SDS011;40825;52.270;20.984;2024-03-07T05:51:22;25.20;;;10.30;;
54923;SDS011;40825;52.270;20.984;2024-03-07T05:53:54;23.00;;;11.90;;
54923;SDS011;40825;52.270;20.984;2024-03-07T05:56:37;23.80;;;10.70;;
54923;SDS011;40825;52.270;20.984;2024-03-07T05:59:25;27.30;;;11.10;;
54923;SDS011;40825;52.270;20.984;2024-03-07T06:01:59;21.40;;;10.20;;
54923;SDS011;40825;52.270;20.984;2024-03-07T06:04:27;25.40;;;10.20;;
54923;SDS011;40825;52.270;20.984;2024-03-07T06:06:54;25.60;;;10.20;;
54923;SDS011;40825;52.270;20.984;2024-03-07T06:09:20;27.50;;;11.60;;
54923;SDS011;40825;52.270;20.984;2024-03-07T06:11:51;20.10;;;9.20;;
54923;SDS011;40825;52.270;20.984;2024-03-07T06:17:18;24.50;;;11.20;;
54923;SDS011;40825;52.270;20.984;2024-03-07T06:19:46;21.10;;;8.30;;
54923;SDS011;40825;52.270;20.984;2024-03-07T06:22:13;19.90;;;8.80;;
54923;SDS011;40825;52.270;20.984;2024-03-07T06:25:01;25.10;;;10.10;;
54923;SDS011;40825;52.270;20.984;2024-03-07T06:27:52;20.90;;;9.90;;
54923;SDS011;40825;52.270;20.984;2024-03-07T06:30:20;21.60;;;10.30;;
54923;SDS011;40825;52.270;20.984;2024-03-07T06:33:07;25.20;;;10.50;;
54923;SDS011;40825;52.270;20.984;2024-03-07T06:35:35;23.30;;;9.80;;
54923;SDS011;40825;52.270;20.984;2024-03-07T06:40:58;19.00;;;9.30;;
54923;SDS011;40825;52.270;20.984;2024-03-07T06:43:35;20.80;;;10.10;;
54923;SDS011;40825;52.270;20.984;2024-03-07T06:46:04;20.90;;;10.30;;
54923;SDS011;40825;52.270;20.984;2024-03-07T06:48:47;22.50;;;10.60;;
54923;SDS011;40825;52.270;20.984;2024-03-07T06:51:16;18.80;;;10.10;;
54923;SDS011;40825;52.270;20.984;2024-03-07T06:53:48;19.60;;;9.90;;
54923;SDS011;40825;52.270;20.984;2024-03-07T06:56:15;20.70;;;9.50;;
54923;SDS011;40825;52.270;20.984;2024-03-07T06:58:41;18.90;;;9.20;;
54923;SDS011;40825;52.270;20.984;2024-03-07T07:01:11;20.00;;;9.50;;
54923;SDS011;40825;52.270;20.984;2024-03-07T07:04:05;18.70;;;8.80;;
54923;SDS011;40825;52.270;20.984;2024-03-07T07:06:34;18.90;;;8.40;;
54923;SDS011;40825;52.270;20.984;2024-03-07T07:09:02;19.30;;;9.40;;
54923;SDS011;40825;52.270;20.984;2024-03-07T07:11:28;19.30;;;9.20;;
54923;SDS011;40825;52.270;20.984;2024-03-07T07:13:55;18.80;;;9.20;;
54923;SDS011;40825;52.270;20.984;2024-03-07T07:16:23;17.30;;;8.40;;
54923;SDS011;40825;52.270;20.984;2024-03-07T07:18:50;16.40;;;7.90;;
54923;SDS011;40825;52.270;20.984;2024-03-07T07:21:17;17.50;;;8.00;;
54923;SDS011;40825;52.270;20.984;2024-03-07T07:26:54;16.90;;;8.60;;
54923;SDS011;40825;52.270;20.984;2024-03-07T07:29:25;15.40;;;8.00;;
54923;SDS011;40825;52.270;20.984;2024-03-07T07:31:52;15.90;;;7.30;;
54923;SDS011;40825;52.270;20.984;2024-03-07T07:37:24;14.20;;;7.50;;
54923;SDS011;40825;52.270;20.984;2024-03-07T07:39:50;12.90;;;7.30;;
54923;SDS011;40825;52.270;20.984;2024-03-07T07:48:26;13.10;;;6.40;;
54923;SDS011;40825;52.270;20.984;2024-03-07T07:50:52;13.60;;;6.00;;
54923;SDS011;40825;52.270;20.984;2024-03-07T07:53:59;11.00;;;5.50;;
54923;SDS011;40825;52.270;20.984;2024-03-07T07:56:28;11.40;;;5.20;;
54923;SDS011;40825;52.270;20.984;2024-03-07T08:01:40;12.10;;;5.10;;
54923;SDS011;40825;52.270;20.984;2024-03-07T08:04:06;12.70;;;5.40;;
54923;SDS011;40825;52.270;20.984;2024-03-07T08:09:48;13.00;;;5.40;;
54923;SDS011;40825;52.270;20.984;2024-03-07T08:12:14;11.00;;;4.90;;
54923;SDS011;40825;52.270;20.984;2024-03-07T08:14:49;13.00;;;5.40;;
54923;SDS011;40825;52.270;20.984;2024-03-07T08:17:14;9.60;;;4.20;;
54923;SDS011;40825;52.270;20.984;2024-03-07T08:19:40;9.50;;;3.70;;
54923;SDS011;40825;52.270;20.984;2024-03-07T08:22:07;8.50;;;3.40;;
54923;SDS011;40825;52.270;20.984;2024-03-07T08:24:38;10.40;;;4.30;;
54923;SDS011;40825;52.270;20.984;2024-03-07T08:27:04;9.00;;;4.50;;
54923;SDS011;40825;52.270;20.984;2024-03-07T08:29:30;11.50;;;5.00;;
54923;SDS011;40825;52.270;20.984;2024-03-07T08:31:55;13.00;;;5.50;;
54923;SDS011;40825;52.270;20.984;2024-03-07T08:34:23;10.70;;;4.70;;
54923;SDS011;40825;52.270;20.984;2024-03-07T08:36:49;10.30;;;4.20;;
54923;SDS011;40825;52.270;20.984;2024-03-07T08:39:15;10.40;;;5.10;;
54923;SDS011;40825;52.270;20.984;2024-03-07T08:41:41;9.20;;;4.20;;
54923;SDS011;40825;52.270;20.984;2024-03-07T08:44:27;9.60;;;4.20;;
54923;SDS011;40825;52.270;20.984;2024-03-07T08:46:55;9.40;;;4.90;;
54923;SDS011;40825;52.270;20.984;2024-03-07T08:49:47;11.00;;;5.00;;
54923;SDS011;40825;52.270;20.984;2024-03-07T08:52:12;10.30;;;4.60;;
54923;SDS011;40825;52.270;20.984;2024-03-07T08:54:37;12.00;;;5.40;;
54923;SDS011;40825;52.270;20.984;2024-03-07T08:57:03;11.90;;;5.70;;
54923;SDS011;40825;52.270;20.984;2024-03-07T08:59:53;11.70;;;4.60;;
54923;SDS011;40825;52.270;20.984;2024-03-07T09:05:34;9.60;;;4.90;;
54923;SDS011;40825;52.270;20.984;2024-03-07T09:08:00;9.90;;;4.20;;
54923;SDS011;40825;52.270;20.984;2024-03-07T09:10:27;12.00;;;4.70;;
54923;SDS011;40825;52.270;20.984;2024-03-07T09:12:55;10.70;;;4.40;;
54923;SDS011;40825;52.270;20.984;2024-03-07T09:15:20;8.30;;;4.10;;
54923;SDS011;40825;52.270;20.984;2024-03-07T09:18:09;11.50;;;4.30;;
54923;SDS011;40825;52.270;20.984;2024-03-07T09:20:35;9.90;;;4.20;;
54923;SDS011;40825;52.270;20.984;2024-03-07T09:23:03;10.20;;;4.20;;
54923;SDS011;40825;52.270;20.984;2024-03-07T09:25:29;9.70;;;4.70;;
54923;SDS011;40825;52.270;20.984;2024-03-07T09:28:03;7.90;;;3.60;;
54923;SDS011;40825;52.270;20.984;2024-03-07T09:30:39;9.80;;;4.40;;
54923;SDS011;40825;52.270;20.984;2024-03-07T09:33:58;9.70;;;3.60;;
54923;SDS011;40825;52.270;20.984;2024-03-07T09:36:26;9.40;;;3.30;;
54923;SDS011;40825;52.270;20.984;2024-03-07T09:38:57;7.70;;;4.10;;
54923;SDS011;40825;52.270;20.984;2024-03-07T09:41:23;9.60;;;3.30;;
54923;SDS011;40825;52.270;20.984;2024-03-07T09:43:53;8.90;;;3.20;;
54923;SDS011;40825;52.270;20.984;2024-03-07T09:46:29;8.40;;;3.40;;
54923;SDS011;40825;52.270;20.984;2024-03-07T09:49:18;8.40;;;3.70;;
54923;SDS011;40825;52.270;20.984;2024-03-07T09:52:07;7.70;;;3.50;;
54923;SDS011;40825;52.270;20.984;2024-03-07T09:54:39;8.80;;;4.70;;
54923;SDS011;40825;52.270;20.984;2024-03-07T09:57:06;8.70;;;3.70;;
54923;SDS011;40825;52.270;20.984;2024-03-07T09:59:54;8.00;;;3.30;;
54923;SDS011;40825;52.270;20.984;2024-03-07T10:02:29;9.80;;;3.90;;
54923;SDS011;40825;52.270;20.984;2024-03-07T10:05:09;8.70;;;3.70;;
54923;SDS011;40825;52.270;20.984;2024-03-07T10:07:56;10.50;;;3.60;;
54923;SDS011;40825;52.270;20.984;2024-03-07T10:10:22;8.40;;;3.60;;
54923;SDS011;40825;52.270;20.984;2024-03-07T10:12:49;8.80;;;4.10;;
54923;SDS011;40825;52.270;20.984;2024-03-07T10:15:16;9.00;;;4.10;;
54923;SDS011;40825;52.270;20.984;2024-03-07T10:17:42;10.90;;;3.90;;
54923;SDS011;40825;52.270;20.984;2024-03-07T10:20:12;10.20;;;4.50;;
54923;SDS011;40825;52.270;20.984;2024-03-07T10:22:41;11.20;;;4.60;;
54923;SDS011;40825;52.270;20.984;2024-03-07T10:25:07;10.00;;;4.60;;
54923;SDS011;40825;52.270;20.984;2024-03-07T10:27:35;8.90;;;3.80;;
54923;SDS011;40825;52.270;20.984;2024-03-07T10:30:01;7.40;;;2.80;;
54923;SDS011;40825;52.270;20.984;2024-03-07T10:32:27;10.60;;;3.50;;
54923;SDS011;40825;52.270;20.984;2024-03-07T10:34:55;9.60;;;4.30;;
54923;SDS011;40825;52.270;20.984;2024-03-07T10:37:23;10.20;;;4.20;;
54923;SDS011;40825;52.270;20.984;2024-03-07T10:39:53;8.40;;;4.10;;
54923;SDS011;40825;52.270;20.984;2024-03-07T10:42:20;9.20;;;4.20;;
54923;SDS011;40825;52.270;20.984;2024-03-07T10:44:50;11.00;;;5.50;;
54923;SDS011;40825;52.270;20.984;2024-03-07T10:47:21;8.90;;;3.80;;
54923;SDS011;40825;52.270;20.984;2024-03-07T10:50:04;10.20;;;4.10;;
54923;SDS011;40825;52.270;20.984;2024-03-07T10:52:49;9.80;;;3.70;;
54923;SDS011;40825;52.270;20.984;2024-03-07T11:01:01;8.40;;;3.20;;
54923;SDS011;40825;52.270;20.984;2024-03-07T11:03:34;8.10;;;3.30;;
54923;SDS011;40825;52.270;20.984;2024-03-07T11:06:01;9.90;;;4.00;;
54923;SDS011;40825;52.270;20.984;2024-03-07T11:08:32;9.80;;;4.10;;
54923;SDS011;40825;52.270;20.984;2024-03-07T11:11:02;9.20;;;4.50;;
54923;SDS011;40825;52.270;20.984;2024-03-07T11:13:29;9.30;;;3.70;;
54923;SDS011;40825;52.270;20.984;2024-03-07T11:15:56;10.20;;;4.10;;
54923;SDS011;40825;52.270;20.984;2024-03-07T11:19:17;9.90;;;3.50;;
54923;SDS011;40825;52.270;20.984;2024-03-07T11:21:57;10.10;;;4.60;;
54923;SDS011;40825;52.270;20.984;2024-03-07T11:24:45;10.00;;;3.90;;
54923;SDS011;40825;52.270;20.984;2024-03-07T11:27:25;9.40;;;3.70;;
54923;SDS011;40825;52.270;20.984;2024-03-07T11:29:59;9.00;;;3.20;;
54923;SDS011;40825;52.270;20.984;2024-03-07T11:32:53;10.10;;;3.90;;
54923;SDS011;40825;52.270;20.984;2024-03-07T11:38:20;8.10;;;3.40;;
54923;SDS011;40825;52.270;20.984;2024-03-07T11:41:06;7.70;;;2.80;;
54923;SDS011;40825;52.270;20.984;2024-03-07T11:43:33;6.10;;;2.60;;
54923;SDS011;40825;52.270;20.984;2024-03-07T11:46:00;7.10;;;3.20;;
54923;SDS011;40825;52.270;20.984;2024-03-07T11:48:26;8.80;;;2.80;;
54923;SDS011;40825;52.270;20.984;2024-03-07T11:50:55;8.20;;;3.90;;
54923;SDS011;40825;52.270;20.984;2024-03-07T11:53:21;9.00;;;4.20;;
54923;SDS011;40825;52.270;20.984;2024-03-07T11:55:56;11.00;;;4.10;;
54923;SDS011;40825;52.270;20.984;2024-03-07T11:58:22;8.90;;;4.30;;
54923;SDS011;40825;52.270;20.984;2024-03-07T12:00:48;10.00;;;3.40;;
54923;SDS011;40825;52.270;20.984;2024-03-07T12:03:17;9.00;;;3.20;;
54923;SDS011;40825;52.270;20.984;2024-03-07T12:05:47;10.10;;;4.20;;
54923;SDS011;40825;52.270;20.984;2024-03-07T12:08:20;11.10;;;4.10;;
54923;SDS011;40825;52.270;20.984;2024-03-07T12:10:59;10.80;;;4.40;;
54923;SDS011;40825;52.270;20.984;2024-03-07T12:13:27;9.30;;;4.10;;
54923;SDS011;40825;52.270;20.984;2024-03-07T12:15:53;9.50;;;3.90;;
54923;SDS011;40825;52.270;20.984;2024-03-07T12:18:29;11.90;;;5.20;;
54923;SDS011;40825;52.270;20.984;2024-03-07T12:20:58;9.00;;;4.20;;
54923;SDS011;40825;52.270;20.984;2024-03-07T12:23:25;9.20;;;4.20;;
54923;SDS011;40825;52.270;20.984;2024-03-07T12:26:08;8.50;;;3.50;;
54923;SDS011;40825;52.270;20.984;2024-03-07T12:28:36;8.60;;;3.90;;
54923;SDS011;40825;52.270;20.984;2024-03-07T12:31:03;7.80;;;3.50;;
54923;SDS011;40825;52.270;20.984;2024-03-07T12:33:37;9.60;;;3.70;;
54923;SDS011;40825;52.270;20.984;2024-03-07T12:36:07;8.30;;;3.50;;
54923;SDS011;40825;52.270;20.984;2024-03-07T12:41:04;7.20;;;2.70;;
54923;SDS011;40825;52.270;20.984;2024-03-07T12:43:32;9.70;;;4.00;;
54923;SDS011;40825;52.270;20.984;2024-03-07T12:45:58;10.50;;;4.60;;
54923;SDS011;40825;52.270;20.984;2024-03-07T12:48:24;10.20;;;4.20;;
54923;SDS011;40825;52.270;20.984;2024-03-07T12:50:50;11.40;;;4.90;;
54923;SDS011;40825;52.270;20.984;2024-03-07T12:53:20;10.70;;;5.00;;
54923;SDS011;40825;52.270;20.984;2024-03-07T12:55:47;9.60;;;3.90;;
54923;SDS011;40825;52.270;20.984;2024-03-07T12:58:13;8.40;;;2.90;;
54923;SDS011;40825;52.270;20.984;2024-03-07T13:00:40;8.10;;;3.90;;
54923;SDS011;40825;52.270;20.984;2024-03-07T13:03:07;7.90;;;3.60;;
54923;SDS011;40825;52.270;20.984;2024-03-07T13:05:39;10.00;;;4.50;;
54923;SDS011;40825;52.270;20.984;2024-03-07T13:08:14;8.40;;;3.80;;
54923;SDS011;40825;52.270;20.984;2024-03-07T13:10:43;8.30;;;4.00;;
54923;SDS011;40825;52.270;20.984;2024-03-07T13:13:09;9.20;;;4.60;;
54923;SDS011;40825;52.270;20.984;2024-03-07T13:15:36;9.70;;;4.60;;
54923;SDS011;40825;52.270;20.984;2024-03-07T13:18:07;9.30;;;4.50;;
54923;SDS011;40825;52.270;20.984;2024-03-07T13:20:34;9.60;;;4.80;;
54923;SDS011;40825;52.270;20.984;2024-03-07T13:23:01;9.40;;;4.00;;
54923;SDS011;40825;52.270;20.984;2024-03-07T13:25:30;9.20;;;3.90;;
54923;SDS011;40825;52.270;20.984;2024-03-07T13:31:13;9.20;;;4.00;;
54923;SDS011;40825;52.270;20.984;2024-03-07T13:33:42;9.10;;;4.00;;
54923;SDS011;40825;52.270;20.984;2024-03-07T13:36:09;9.30;;;4.70;;
54923;SDS011;40825;52.270;20.984;2024-03-07T13:38:35;8.70;;;4.10;;
54923;SDS011;40825;52.270;20.984;2024-03-07T13:41:16;9.80;;;4.40;;
54923;SDS011;40825;52.270;20.984;2024-03-07T13:43:45;9.10;;;4.00;;
54923;SDS011;40825;52.270;20.984;2024-03-07T13:46:13;8.20;;;3.20;;
54923;SDS011;40825;52.270;20.984;2024-03-07T13:48:40;9.90;;;3.90;;
54923;SDS011;40825;52.270;20.984;2024-03-07T13:51:08;9.20;;;4.00;;
54923;SDS011;40825;52.270;20.984;2024-03-07T13:53:34;8.90;;;4.20;;
54923;SDS011;40825;52.270;20.984;2024-03-07T14:01:46;9.10;;;4.10;;
54923;SDS011;40825;52.270;20.984;2024-03-07T14:07:21;9.90;;;4.30;;
54923;SDS011;40825;52.270;20.984;2024-03-07T14:09:56;10.80;;;5.00;;
54923;SDS011;40825;52.270;20.984;2024-03-07T14:15:57;9.80;;;4.80;;
54923;SDS011;40825;52.270;20.984;2024-03-07T14:24:33;8.70;;;3.60;;
54923;SDS011;40825;52.270;20.984;2024-03-07T14:30:19;11.00;;;5.40;;
54923;SDS011;40825;52.270;20.984;2024-03-07T14:32:52;9.70;;;3.70;;
54923;SDS011;40825;52.270;20.984;2024-03-07T14:35:26;9.90;;;4.50;;
54923;SDS011;40825;52.270;20.984;2024-03-07T14:40:49;10.70;;;4.40;;
54923;SDS011;40825;52.270;20.984;2024-03-07T14:43:16;10.10;;;4.60;;
54923;SDS011;40825;52.270;20.984;2024-03-07T14:45:44;10.50;;;3.90;;
54923;SDS011;40825;52.270;20.984;2024-03-07T14:48:12;8.20;;;2.70;;
54923;SDS011;40825;52.270;20.984;2024-03-07T14:50:42;9.00;;;3.20;;
54923;SDS011;40825;52.270;20.984;2024-03-07T14:55:38;11.60;;;4.50;;
54923;SDS011;40825;52.270;20.984;2024-03-07T14:58:06;11.30;;;4.50;;
54923;SDS011;40825;52.270;20.984;2024-03-07T15:00:36;11.40;;;4.50;;
54923;SDS011;40825;52.270;20.984;2024-03-07T15:03:07;9.00;;;3.90;;
54923;SDS011;40825;52.270;20.984;2024-03-07T15:08:01;7.00;;;2.90;;
54923;SDS011;40825;52.270;20.984;2024-03-07T15:10:28;9.40;;;4.00;;
54923;SDS011;40825;52.270;20.984;2024-03-07T15:12:57;11.30;;;4.20;;
54923;SDS011;40825;52.270;20.984;2024-03-07T15:15:23;10.70;;;4.60;;
54923;SDS011;40825;52.270;20.984;2024-03-07T15:17:50;8.40;;;3.50;;
54923;SDS011;40825;52.270;20.984;2024-03-07T15:20:16;8.70;;;3.70;;
54923;SDS011;40825;52.270;20.984;2024-03-07T15:22:57;9.70;;;3.90;;
54923;SDS011;40825;52.270;20.984;2024-03-07T15:25:47;8.50;;;3.70;;
54923;SDS011;40825;52.270;20.984;2024-03-07T15:28:13;9.10;;;3.00;;
54923;SDS011;40825;52.270;20.984;2024-03-07T15:30:38;14.00;;;4.60;;
54923;SDS011;40825;52.270;20.984;2024-03-07T15:33:07;11.50;;;4.30;;
54923;SDS011;40825;52.270;20.984;2024-03-07T15:35:44;9.90;;;4.30;;
54923;SDS011;40825;52.270;20.984;2024-03-07T15:38:11;11.50;;;3.90;;
54923;SDS011;40825;52.270;20.984;2024-03-07T15:40:42;9.90;;;3.50;;
54923;SDS011;40825;52.270;20.984;2024-03-07T15:43:10;10.90;;;4.40;;
54923;SDS011;40825;52.270;20.984;2024-03-07T15:45:38;9.80;;;4.30;;
54923;SDS011;40825;52.270;20.984;2024-03-07T15:48:04;12.60;;;3.80;;
54923;SDS011;40825;52.270;20.984;2024-03-07T15:50:35;8.40;;;3.50;;
54923;SDS011;40825;52.270;20.984;2024-03-07T15:53:02;9.30;;;3.90;;
54923;SDS011;40825;52.270;20.984;2024-03-07T15:55:30;11.20;;;4.20;;
54923;SDS011;40825;52.270;20.984;2024-03-07T15:57:59;11.40;;;4.50;;
54923;SDS011;40825;52.270;20.984;2024-03-07T16:00:29;10.80;;;4.20;;
54923;SDS011;40825;52.270;20.984;2024-03-07T16:02:56;11.50;;;4.40;;
54923;SDS011;40825;52.270;20.984;2024-03-07T16:05:29;10.00;;;4.50;;
54923;SDS011;40825;52.270;20.984;2024-03-07T16:07:57;12.10;;;4.00;;
54923;SDS011;40825;52.270;20.984;2024-03-07T16:10:31;10.40;;;4.80;;
54923;SDS011;40825;52.270;20.984;2024-03-07T16:12:59;11.10;;;4.20;;
54923;SDS011;40825;52.270;20.984;2024-03-07T16:15:29;9.40;;;4.50;;
54923;SDS011;40825;52.270;20.984;2024-03-07T16:17:57;10.40;;;4.10;;
54923;SDS011;40825;52.270;20.984;2024-03-07T16:20:30;10.80;;;4.20;;
54923;SDS011;40825;52.270;20.984;2024-03-07T16:22:58;8.80;;;3.60;;
54923;SDS011;40825;52.270;20.984;2024-03-07T16:25:25;11.00;;;4.70;;
54923;SDS011;40825;52.270;20.984;2024-03-07T16:27:52;10.40;;;3.80;;
54923;SDS011;40825;52.270;20.984;2024-03-07T16:30:24;9.90;;;4.10;;
54923;SDS011;40825;52.270;20.984;2024-03-07T16:33:00;11.00;;;5.20;;
54923;SDS011;40825;52.270;20.984;2024-03-07T16:35:26;10.30;;;4.40;;
54923;SDS011;40825;52.270;20.984;2024-03-07T16:37:55;11.00;;;4.80;;
54923;SDS011;40825;52.270;20.984;2024-03-07T16:40:22;11.50;;;4.80;;
54923;SDS011;40825;52.270;20.984;2024-03-07T16:43:11;12.90;;;5.20;;
54923;SDS011;40825;52.270;20.984;2024-03-07T16:45:37;11.20;;;4.90;;
54923;SDS011;40825;52.270;20.984;2024-03-07T16:48:03;13.50;;;5.50;;
54923;SDS011;40825;52.270;20.984;2024-03-07T16:50:34;13.60;;;5.00;;
54923;SDS011;40825;52.270;20.984;2024-03-07T16:53:01;14.40;;;5.80;;
54923;SDS011;40825;52.270;20.984;2024-03-07T16:55:31;11.50;;;4.90;;
54923;SDS011;40825;52.270;20.984;2024-03-07T16:57:57;12.90;;;4.90;;
54923;SDS011;40825;52.270;20.984;2024-03-07T17:00:23;12.50;;;5.90;;
54923;SDS011;40825;52.270;20.984;2024-03-07T17:02:55;12.40;;;5.60;;
54923;SDS011;40825;52.270;20.984;2024-03-07T17:05:34;12.80;;;5.60;;
54923;SDS011;40825;52.270;20.984;2024-03-07T17:08:01;15.00;;;5.50;;
54923;SDS011;40825;52.270;20.984;2024-03-07T17:10:28;13.10;;;5.50;;
54923;SDS011;40825;52.270;20.984;2024-03-07T17:12:57;15.20;;;5.50;;
54923;SDS011;40825;52.270;20.984;2024-03-07T17:15:23;14.70;;;5.60;;
54923;SDS011;40825;52.270;20.984;2024-03-07T17:17:50;14.60;;;5.70;;
54923;SDS011;40825;52.270;20.984;2024-03-07T17:20:17;16.80;;;6.90;;
54923;SDS011;40825;52.270;20.984;2024-03-07T17:22:45;17.20;;;6.90;;
54923;SDS011;40825;52.270;20.984;2024-03-07T17:25:10;15.20;;;6.20;;
54923;SDS011;40825;52.270;20.984;2024-03-07T17:27:48;16.80;;;6.20;;
54923;SDS011;40825;52.270;20.984;2024-03-07T17:30:16;15.40;;;5.90;;
54923;SDS011;40825;52.270;20.984;2024-03-07T17:32:46;12.70;;;5.50;;
54923;SDS011;40825;52.270;20.984;2024-03-07T17:35:15;13.50;;;5.70;;
54923;SDS011;40825;52.270;20.984;2024-03-07T17:37:46;13.20;;;6.80;;
54923;SDS011;40825;52.270;20.984;2024-03-07T17:40:15;12.60;;;5.50;;
54923;SDS011;40825;52.270;20.984;2024-03-07T17:42:45;14.30;;;6.60;;
54923;SDS011;40825;52.270;20.984;2024-03-07T17:45:14;14.80;;;6.30;;
54923;SDS011;40825;52.270;20.984;2024-03-07T17:47:48;15.40;;;6.30;;
54923;SDS011;40825;52.270;20.984;2024-03-07T17:50:46;14.70;;;6.00;;
54923;SDS011;40825;52.270;20.984;2024-03-07T17:53:17;17.10;;;7.20;;
54923;SDS011;40825;52.270;20.984;2024-03-07T17:55:50;17.20;;;6.90;;
54923;SDS011;40825;52.270;20.984;2024-03-07T17:58:22;15.10;;;6.10;;
54923;SDS011;40825;52.270;20.984;2024-03-07T18:01:08;14.10;;;6.20;;
54923;SDS011;40825;52.270;20.984;2024-03-07T18:09:58;13.30;;;5.70;;
54923;SDS011;40825;52.270;20.984;2024-03-07T18:12:24;14.40;;;6.20;;
54923;SDS011;40825;52.270;20.984;2024-03-07T18:14:54;16.50;;;6.40;;
54923;SDS011;40825;52.270;20.984;2024-03-07T18:17:20;20.00;;;6.80;;
54923;SDS011;40825;52.270;20.984;2024-03-07T18:20:01;16.30;;;7.30;;
54923;SDS011;40825;52.270;20.984;2024-03-07T18:22:34;15.80;;;6.70;;
54923;SDS011;40825;52.270;20.984;2024-03-07T18:25:03;19.10;;;7.70;;
54923;SDS011;40825;52.270;20.984;2024-03-07T18:27:29;14.80;;;6.70;;
54923;SDS011;40825;52.270;20.984;2024-03-07T18:29:59;20.10;;;8.10;;
54923;SDS011;40825;52.270;20.984;2024-03-07T18:32:36;20.10;;;7.70;;
54923;SDS011;40825;52.270;20.984;2024-03-07T18:35:05;20.20;;;7.30;;
54923;SDS011;40825;52.270;20.984;2024-03-07T18:37:31;17.90;;;7.40;;
54923;SDS011;40825;52.270;20.984;2024-03-07T18:40:03;17.20;;;7.50;;
54923;SDS011;40825;52.270;20.984;2024-03-07T18:42:39;17.30;;;7.30;;
54923;SDS011;40825;52.270;20.984;2024-03-07T18:45:17;20.70;;;7.90;;
54923;SDS011;40825;52.270;20.984;2024-03-07T18:47:45;15.60;;;7.10;;